createdAt,value
2023-03-20T07:57:32.970Z,70.24
2023-03-20T07:57:44.195Z,70.95
2023-03-20T07:57:54.117Z,71.67
2023-03-20T07:58:04.410Z,72.21
2023-03-20T07:58:14.402Z,72.52
2023-03-20T07:58:24.624Z,72.55
2023-03-20T07:58:34.583Z,73.67
2023-03-20T07:58:46.205Z,74.69
2023-03-20T07:58:55.397Z,75.20
2023-03-20T07:59:04.995Z,75.51
2023-03-20T07:59:16.011Z,75.40
2023-03-20T07:59:27.565Z,75.27
2023-03-20T07:59:35.133Z,74.65
2023-03-20T07:59:45.489Z,74.25
2023-03-20T07:59:55.839Z,74.35
2023-03-20T08:00:05.724Z,74.45
2023-03-20T08:00:15.829Z,73.91
2023-03-20T08:00:27.997Z,73.71
2023-03-20T08:00:35.901Z,74.01
2023-03-20T08:00:46.026Z,73.71
2023-03-20T08:00:56.181Z,73.60
2023-03-20T08:01:06.357Z,73.91
2023-03-20T08:01:16.434Z,74.11
2023-03-20T08:01:27.310Z,74.11
2023-03-20T08:01:36.739Z,74.11
2023-03-20T08:01:46.856Z,74.01
2023-03-20T08:01:57.023Z,74.08
2023-03-20T08:02:07.150Z,74.01
2023-03-20T08:02:17.220Z,73.40
2023-03-20T08:02:27.401Z,73.30
2023-03-20T08:02:37.446Z,73.47
2023-03-20T08:02:47.753Z,73.87
2023-03-20T08:02:57.849Z,73.87
2023-03-20T08:03:07.850Z,73.77
2023-03-20T08:03:18.087Z,73.80
2023-03-20T08:03:28.148Z,73.91
2023-03-20T08:03:38.262Z,73.91
2023-03-20T08:03:48.357Z,73.80
2023-03-20T08:03:58.528Z,73.60
2023-03-20T08:04:08.708Z,74.01
2023-03-20T08:04:18.691Z,73.80
2023-03-20T08:04:28.761Z,74.01
2023-03-20T08:04:38.924Z,74.32
2023-03-20T08:04:49.128Z,74.93
2023-03-20T08:04:59.227Z,75.13
2023-03-20T08:05:09.859Z,74.38
2023-03-20T08:05:19.404Z,74.08
2023-03-20T08:05:29.572Z,74.28
2023-03-20T08:05:39.706Z,74.99
2023-03-20T08:05:49.893Z,75.50
2023-03-20T08:05:59.933Z,75.60
2023-03-20T08:06:10.067Z,75.60
2023-03-20T08:06:20.166Z,75.60
2023-03-20T08:06:30.300Z,75.30
2023-03-20T08:06:40.394Z,75.09
2023-03-20T08:06:50.756Z,75.09
2023-03-20T08:07:00.718Z,74.76
2023-03-20T08:07:10.866Z,75.16
2023-03-20T08:07:20.993Z,75.46
2023-03-20T08:07:31.993Z,75.57
2023-03-20T08:07:41.768Z,75.37
2023-03-20T08:07:51.285Z,74.65
2023-03-20T08:08:01.323Z,73.94
2023-03-20T08:08:11.639Z,74.04
2023-03-20T08:08:21.674Z,74.35
2023-03-20T08:08:31.817Z,74.62
2023-03-20T08:08:41.847Z,74.52
2023-03-20T08:08:51.945Z,74.62
2023-03-20T08:09:02.035Z,74.38
2023-03-20T08:09:12.235Z,73.97
2023-03-20T08:09:22.303Z,73.67
2023-03-20T08:09:33.907Z,73.06
2023-03-20T08:09:42.729Z,72.72
2023-03-20T08:09:52.927Z,72.34
2023-03-20T08:10:02.986Z,72.55
2023-03-20T08:10:14.098Z,72.82
2023-03-20T08:10:23.225Z,72.41
2023-03-20T08:10:33.742Z,72.11
2023-03-20T08:10:43.455Z,71.91
2023-03-20T08:10:53.511Z,71.40
2023-03-20T08:11:03.742Z,70.48
2023-03-20T08:11:13.674Z,69.87
2023-03-20T08:11:23.765Z,70.38
2023-03-20T08:11:34.748Z,69.95
2023-03-20T08:11:43.925Z,69.95
2023-03-20T08:11:54.127Z,70.25
2023-03-20T08:12:04.290Z,69.91
2023-03-20T08:12:14.525Z,69.40
2023-03-20T08:12:24.529Z,69.30
2023-03-20T08:12:34.744Z,69.51
2023-03-20T08:12:44.816Z,69.60
2023-03-20T08:12:55.121Z,69.71
2023-03-20T08:13:05.096Z,69.20
2023-03-20T08:13:18.993Z,69.10
2023-03-20T08:13:25.373Z,69.30
2023-03-20T08:13:35.533Z,69.51
2023-03-20T08:13:45.682Z,69.60
2023-03-20T08:13:55.737Z,69.81
2023-03-20T08:14:05.802Z,69.95
2023-03-20T08:14:15.997Z,70.42
2023-03-20T08:14:27.287Z,70.32
2023-03-20T08:14:36.259Z,69.71
2023-03-20T08:14:46.342Z,69.71
2023-03-20T08:14:56.391Z,69.71
2023-03-20T08:15:06.479Z,69.81
2023-03-20T08:15:16.706Z,69.91
2023-03-20T08:15:26.964Z,69.60
2023-03-20T08:15:37.140Z,69.64
2023-03-20T08:15:47.117Z,70.15
2023-03-20T08:15:57.171Z,70.45
2023-03-20T08:16:07.244Z,70.45
2023-03-20T08:16:17.375Z,70.11
2023-03-20T08:16:27.479Z,70.01
2023-03-20T08:16:37.662Z,69.71
2023-03-20T08:16:49.337Z,69.57
2023-03-20T08:17:13.279Z,69.27
2023-03-20T08:17:21.618Z,68.96
2023-03-20T08:17:27.433Z,69.07
2023-03-20T08:17:37.467Z,68.93
2023-03-20T08:17:47.607Z,68.83
2023-03-20T08:17:57.740Z,68.43
2023-03-20T08:18:08.010Z,67.31
2023-03-20T08:18:18.039Z,67.31
2023-03-20T08:18:28.154Z,67.44
2023-03-20T08:18:38.184Z,67.85
2023-03-20T08:18:48.438Z,67.95
2023-03-20T08:18:58.407Z,68.56
2023-03-20T08:19:08.489Z,68.46
2023-03-20T08:19:18.713Z,68.35
2023-03-20T08:19:28.803Z,68.15
2023-03-20T08:19:39.098Z,68.23
2023-03-20T08:19:49.035Z,67.24
2023-03-20T08:19:59.181Z,66.46
2023-03-20T08:20:09.207Z,66.60
2023-03-20T08:20:19.455Z,67.74
2023-03-20T08:20:30.599Z,68.96
2023-03-20T08:20:39.828Z,69.84
2023-03-20T08:20:49.817Z,69.95
2023-03-20T08:21:00.007Z,69.81
2023-03-20T08:21:10.313Z,69.51
2023-03-20T08:21:20.148Z,69.51
2023-03-20T08:21:30.318Z,69.27
2023-03-20T08:21:40.401Z,68.66
2023-03-20T08:21:50.588Z,68.12
2023-03-20T08:22:00.718Z,67.72
2023-03-20T08:22:10.956Z,66.91
2023-03-20T08:22:20.981Z,66.37
2023-03-20T08:22:31.052Z,65.86
2023-03-20T08:22:41.190Z,65.89
2023-03-20T08:22:51.388Z,65.59
2023-03-20T08:23:02.886Z,65.59
2023-03-20T08:23:12.449Z,65.79
2023-03-20T08:23:22.343Z,65.99
2023-03-20T08:23:31.830Z,65.69
2023-03-20T08:23:42.105Z,65.18
2023-03-20T08:23:53.005Z,65.25
2023-03-20T08:24:02.369Z,65.56
2023-03-20T08:24:12.600Z,65.79
2023-03-20T08:24:23.374Z,65.72
2023-03-20T08:24:33.979Z,66.86
2023-03-20T08:24:43.429Z,66.60
2023-03-20T08:24:53.513Z,66.72
2023-03-20T08:25:03.900Z,67.27
2023-03-20T08:25:13.129Z,68.08
2023-03-20T08:25:23.405Z,68.41
2023-03-20T08:25:33.419Z,68.85
2023-03-20T08:25:44.310Z,69.80
2023-03-20T08:25:53.598Z,70.55
2023-03-20T08:26:03.690Z,71.09
2023-03-20T08:26:13.786Z,72.01
2023-03-20T08:26:23.801Z,72.75
2023-03-20T08:26:34.022Z,73.23
2023-03-20T08:26:44.340Z,73.43
2023-03-20T08:26:55.029Z,73.23
2023-03-20T08:27:04.338Z,72.99
2023-03-20T08:27:14.436Z,72.89
2023-03-20T08:27:25.484Z,72.89
2023-03-20T08:27:34.788Z,73.16
2023-03-20T08:27:44.915Z,73.06
2023-03-20T08:27:54.979Z,72.45
2023-03-20T08:28:05.103Z,71.94
2023-03-20T08:28:15.196Z,71.73
2023-03-20T08:28:40.196Z,71.64
2023-03-20T08:28:52.470Z,71.64
2023-03-20T08:28:58.071Z,71.64
2023-03-20T08:29:08.208Z,71.77
2023-03-20T08:29:18.438Z,71.97
2023-03-20T08:29:28.560Z,72.21
2023-03-20T08:29:38.593Z,72.62
2023-03-20T08:29:48.855Z,73.02
2023-03-20T08:29:58.962Z,73.23
2023-03-20T08:30:08.994Z,73.47
2023-03-20T08:30:19.121Z,73.57
2023-03-20T08:30:29.311Z,73.97
2023-03-20T08:30:39.495Z,74.38
2023-03-20T08:30:49.598Z,74.62
2023-03-20T08:30:59.863Z,74.73
2023-03-20T08:31:09.913Z,74.83
2023-03-20T08:31:19.941Z,74.93
2023-03-20T08:31:29.911Z,75.03
2023-03-20T08:31:40.199Z,75.03
2023-03-20T08:31:50.220Z,75.03
2023-03-20T08:32:00.338Z,74.99
2023-03-20T08:32:10.477Z,74.69
2023-03-20T08:32:20.714Z,74.28
2023-03-20T08:32:30.756Z,74.08
2023-03-20T08:32:40.910Z,73.74
2023-03-20T08:35:04.135Z,73.33
2023-03-20T08:35:31.739Z,73.80
2023-03-20T08:35:38.378Z,72.85
2023-03-20T08:35:44.148Z,71.47
2023-03-20T08:35:53.998Z,69.81
2023-03-20T08:36:04.085Z,68.23
2023-03-20T08:36:14.336Z,66.50
2023-03-20T08:36:24.347Z,66.38
2023-03-20T08:36:34.385Z,66.55
2023-03-20T08:36:44.501Z,67.02
2023-03-20T08:36:54.650Z,67.60
2023-03-20T08:37:04.763Z,66.86
2023-03-20T08:37:14.862Z,66.32
2023-03-20T08:37:24.944Z,65.08
2023-03-20T08:37:35.160Z,61.82
2023-03-20T08:37:45.353Z,60.28
2023-03-20T08:37:55.452Z,59.44
2023-03-20T08:38:05.481Z,58.61
2023-03-20T08:38:15.636Z,57.90
2023-03-20T08:38:25.788Z,57.28
2023-03-20T08:38:35.850Z,56.24
2023-03-20T08:38:45.889Z,56.14
2023-03-20T08:38:56.134Z,56.01
2023-03-20T08:39:06.290Z,55.79
2023-03-20T08:39:16.358Z,55.28
2023-03-20T08:39:26.503Z,54.75
2023-03-20T08:39:36.613Z,54.65
2023-03-20T08:39:47.854Z,53.75
2023-03-20T08:39:56.928Z,53.34
2023-03-20T08:40:07.140Z,53.02
2023-03-20T08:40:18.134Z,53.42
2023-03-20T08:40:27.213Z,52.12
2023-03-20T08:40:37.343Z,51.11
2023-03-20T08:40:47.462Z,51.04
2023-03-20T08:40:58.553Z,51.59
2023-03-20T08:41:07.801Z,51.93
2023-03-20T08:41:18.993Z,52.59
2023-03-20T08:41:28.020Z,53.85
2023-03-20T08:41:38.622Z,55.82
2023-03-20T08:41:49.605Z,56.98
2023-03-20T08:42:00.559Z,58.02
2023-03-20T08:42:08.358Z,58.86
2023-03-20T08:42:18.592Z,59.83
2023-03-20T08:42:28.762Z,60.77
2023-03-20T08:42:41.710Z,61.71
2023-03-20T08:42:49.079Z,62.65
2023-03-20T08:42:59.270Z,63.49
2023-03-20T08:43:09.257Z,64.13
2023-03-20T08:43:20.008Z,64.67
2023-03-20T08:43:29.421Z,65.17
2023-03-20T08:43:39.820Z,65.91
2023-03-20T08:43:49.637Z,66.32
2023-03-20T08:43:59.795Z,66.96
2023-03-20T08:44:09.913Z,67.60
2023-03-20T08:44:20.220Z,68.01
2023-03-20T08:44:30.173Z,68.55
2023-03-20T08:44:40.396Z,68.96
2023-03-20T08:44:50.527Z,69.26
2023-03-20T08:45:00.618Z,69.70
2023-03-20T08:45:10.727Z,70.01
2023-03-20T08:45:21.688Z,70.21
2023-03-20T08:45:31.014Z,70.41
2023-03-20T08:45:41.136Z,70.75
2023-03-20T08:45:51.223Z,71.06
2023-03-20T08:46:01.456Z,71.47
2023-03-20T08:46:11.479Z,71.67
2023-03-20T08:46:21.577Z,71.67
2023-03-20T08:46:32.666Z,71.56
2023-03-20T08:46:41.845Z,71.60
2023-03-20T08:46:51.917Z,71.60
2023-03-20T08:47:02.196Z,71.91
2023-03-20T08:47:12.137Z,71.91
2023-03-20T08:47:22.182Z,71.91
2023-03-20T08:47:32.414Z,71.84
2023-03-20T08:47:42.486Z,72.34
2023-03-20T08:47:52.638Z,72.86
2023-03-20T08:48:02.843Z,73.19
2023-03-20T08:48:12.887Z,73.50
2023-03-20T08:48:23.051Z,73.91
2023-03-20T08:48:33.103Z,74.11
2023-03-20T08:48:43.279Z,74.32
2023-03-20T08:48:53.354Z,74.42
2023-03-20T08:49:03.611Z,74.62
2023-03-20T08:49:13.562Z,74.93
2023-03-20T08:49:23.615Z,74.93
2023-03-20T08:49:33.767Z,74.83
2023-03-20T08:49:44.023Z,74.93
2023-03-20T08:49:54.061Z,74.73
2023-03-20T08:50:04.172Z,74.73
2023-03-20T08:50:14.362Z,74.83
2023-03-20T08:50:24.413Z,74.79
2023-03-20T08:50:34.572Z,74.79
2023-03-20T08:50:46.788Z,74.90
2023-03-20T08:50:54.772Z,74.69
2023-03-20T08:51:04.867Z,74.49
2023-03-20T08:51:16.980Z,74.38
2023-03-20T08:51:25.093Z,74.35
2023-03-20T08:51:35.167Z,74.15
2023-03-20T08:51:45.402Z,73.54
2023-03-20T08:51:55.643Z,73.13
2023-03-20T08:52:05.672Z,73.02
2023-03-20T08:52:15.737Z,73.26
2023-03-20T08:52:25.939Z,73.47
2023-03-20T08:52:35.981Z,73.57
2023-03-20T08:52:46.295Z,73.77
2023-03-20T08:52:56.483Z,73.88
2023-03-20T08:53:06.548Z,73.97
2023-03-20T08:53:16.519Z,74.08
2023-03-20T08:53:26.663Z,74.11
2023-03-20T08:53:36.851Z,74.11
2023-03-20T08:53:46.915Z,74.11
2023-03-20T08:53:57.082Z,74.21
2023-03-20T08:54:07.095Z,74.21
2023-03-20T08:54:17.497Z,74.32
2023-03-20T08:54:27.518Z,74.62
2023-03-20T08:54:37.566Z,74.93
2023-03-20T08:54:47.727Z,74.93
2023-03-20T08:54:58.567Z,75.03
2023-03-20T08:55:08.026Z,75.03
2023-03-20T08:55:18.064Z,75.13
2023-03-20T08:55:28.152Z,75.13
2023-03-20T08:55:38.512Z,75.03
2023-03-20T08:55:48.406Z,75.07
2023-03-20T08:55:59.263Z,75.16
2023-03-20T08:56:08.649Z,75.37
2023-03-20T08:56:18.776Z,75.27
2023-03-20T08:56:28.723Z,75.07
2023-03-20T08:56:38.976Z,74.96
2023-03-20T08:56:49.023Z,75.07
2023-03-20T08:56:59.604Z,75.16
2023-03-20T08:57:09.300Z,75.27
2023-03-20T08:57:19.362Z,75.27
2023-03-20T08:57:29.738Z,75.27
2023-03-20T08:57:39.828Z,75.48
2023-03-20T08:57:49.834Z,75.48
